createdAt,value
2022-09-06T00:01:46.508Z,53.80
2022-09-06T00:04:15.450Z,53.70
2022-09-06T00:06:42.124Z,53.70
2022-09-06T00:09:08.581Z,54.60
2022-09-06T00:11:35.055Z,53.50
2022-09-06T00:14:01.509Z,54.30
2022-09-06T00:16:30.488Z,54.10
2022-09-06T00:18:57.147Z,54.00
2022-09-06T00:21:23.581Z,54.20
2022-09-06T00:23:50.074Z,54.80
2022-09-06T00:26:16.520Z,54.90
2022-09-06T00:28:42.983Z,53.80
2022-09-06T00:31:09.534Z,53.90
2022-09-06T00:33:36.061Z,53.70
2022-09-06T00:38:29.555Z,54.30
2022-09-06T00:40:55.997Z,54.10
2022-09-06T00:45:49.533Z,53.60
2022-09-06T00:48:15.996Z,53.90
2022-09-06T00:50:42.446Z,53.80
2022-09-06T00:53:08.882Z,54.20
2022-09-06T00:55:35.353Z,53.70
2022-09-06T00:58:01.797Z,54.30
2022-09-06T01:00:28.261Z,53.90
2022-09-06T01:02:54.800Z,53.80
2022-09-06T01:07:48.309Z,55.00
2022-09-06T01:10:14.755Z,54.40
2022-09-06T01:12:41.197Z,54.10
2022-09-06T01:15:07.645Z,54.80
2022-09-06T01:17:34.099Z,54.80
2022-09-06T01:22:27.564Z,54.10
2022-09-06T01:27:20.997Z,53.90
2022-09-06T01:29:47.463Z,54.10
2022-09-06T01:32:13.904Z,54.20
2022-09-06T01:34:40.363Z,54.90
2022-09-06T01:39:37.113Z,53.90
2022-09-06T01:42:03.608Z,54.00
2022-09-06T01:44:30.076Z,54.90
2022-09-06T01:46:56.517Z,54.30
2022-09-06T01:49:22.968Z,54.90
2022-09-06T01:51:49.448Z,54.30
2022-09-06T01:54:15.901Z,53.90
2022-09-06T01:56:42.345Z,54.80
2022-09-06T01:59:08.797Z,54.30
2022-09-06T02:01:35.323Z,53.80
2022-09-06T02:06:28.853Z,54.60
2022-09-06T02:08:55.323Z,54.70
2022-09-06T02:11:21.770Z,53.90
2022-09-06T02:13:48.228Z,53.90
2022-09-06T02:16:14.709Z,54.10
2022-09-06T02:18:41.223Z,53.80
2022-09-06T02:21:07.677Z,53.80
2022-09-06T02:23:34.148Z,53.90
2022-09-06T02:26:00.609Z,54.10
2022-09-06T02:30:54.205Z,53.70
2022-09-06T02:33:20.681Z,53.60
2022-09-06T02:38:14.141Z,54.20
2022-09-06T02:40:40.596Z,54.00
2022-09-06T02:43:07.049Z,54.20
2022-09-06T02:45:33.488Z,53.80
2022-09-06T02:47:59.933Z,54.00
2022-09-06T02:50:26.396Z,55.10
2022-09-06T02:52:52.841Z,53.60
2022-09-06T02:55:19.372Z,54.00
2022-09-06T02:57:45.828Z,54.00
2022-09-06T03:00:12.290Z,53.90
2022-09-06T03:02:38.771Z,53.70
2022-09-06T03:05:05.265Z,55.10
2022-09-06T03:07:31.704Z,54.00
2022-09-06T03:09:58.160Z,54.20
2022-09-06T03:14:54.855Z,53.70
2022-09-06T03:17:21.611Z,54.30
2022-09-06T03:19:48.057Z,53.60
2022-09-06T03:22:14.530Z,53.70
2022-09-06T03:27:07.987Z,54.40
2022-09-06T03:29:34.444Z,53.90
2022-09-06T03:32:00.895Z,53.60
2022-09-06T03:36:54.348Z,53.70
2022-09-06T03:39:20.795Z,53.90
2022-09-06T03:41:47.242Z,54.20
2022-09-06T03:46:40.655Z,54.10
2022-09-06T03:49:07.099Z,54.20
2022-09-06T03:51:33.546Z,55.20
2022-09-06T03:56:26.978Z,54.10
2022-09-06T03:58:53.423Z,53.90
2022-09-06T04:01:20.011Z,54.80
2022-09-06T04:08:40.485Z,54.80
2022-09-06T04:11:06.925Z,54.20
2022-09-06T04:13:33.361Z,54.10
2022-09-06T04:15:59.797Z,54.90
2022-09-06T04:18:26.292Z,54.20
2022-09-06T04:20:52.774Z,54.30
2022-09-06T04:25:46.206Z,54.10
2022-09-06T04:28:12.653Z,54.10
2022-09-06T04:30:39.103Z,54.00
2022-09-06T04:33:05.580Z,54.30
2022-09-06T04:35:32.041Z,54.30
2022-09-06T04:37:58.480Z,54.20
2022-09-06T04:40:24.946Z,53.90
2022-09-06T04:42:51.384Z,54.30
2022-09-06T04:45:17.844Z,54.30
2022-09-06T04:50:11.281Z,54.30
2022-09-06T04:52:37.752Z,54.10
2022-09-06T04:57:31.211Z,54.80
2022-09-06T04:59:57.680Z,54.30
2022-09-06T05:02:24.186Z,54.50
2022-09-06T05:04:50.656Z,54.30
2022-09-06T05:07:17.119Z,54.60
2022-09-06T05:09:43.561Z,53.90
2022-09-06T05:12:10.020Z,54.50
2022-09-06T05:14:36.463Z,54.40
2022-09-06T05:17:02.924Z,54.10
2022-09-06T05:21:56.367Z,54.30
2022-09-06T05:24:22.832Z,54.00
2022-09-06T05:26:49.277Z,54.20
2022-09-06T05:29:15.723Z,54.40
2022-09-06T05:31:42.183Z,54.10
2022-09-06T05:34:08.672Z,53.80
2022-09-06T05:36:35.123Z,54.40
2022-09-06T05:39:01.586Z,54.20
2022-09-06T05:41:28.038Z,54.50
2022-09-06T05:43:54.505Z,54.30
2022-09-06T05:46:20.971Z,54.90
2022-09-06T05:48:47.423Z,54.90
2022-09-06T05:51:13.881Z,54.90
2022-09-06T05:53:40.330Z,54.90
2022-09-06T05:56:06.769Z,55.20
2022-09-06T05:58:33.213Z,54.70
2022-09-06T06:00:59.707Z,55.30
2022-09-06T06:03:26.180Z,54.70
2022-09-06T06:05:52.637Z,54.60
2022-09-06T06:08:19.098Z,54.70
2022-09-06T06:13:12.514Z,54.90
2022-09-06T06:15:38.952Z,54.90
2022-09-06T06:18:05.415Z,55.80
2022-09-06T06:20:31.874Z,55.00
2022-09-06T06:22:58.331Z,55.10
2022-09-06T06:25:24.797Z,55.20
2022-09-06T06:27:51.280Z,55.40
2022-09-06T06:30:18.585Z,55.60
2022-09-06T06:32:45.186Z,54.70
2022-09-06T06:37:38.621Z,55.80
2022-09-06T06:40:05.128Z,55.50
2022-09-06T06:42:31.617Z,55.00
2022-09-06T06:44:58.081Z,54.60
2022-09-06T06:47:24.514Z,54.40
2022-09-06T06:52:17.988Z,54.40
2022-09-06T06:54:44.433Z,56.00
2022-09-06T06:57:10.908Z,54.60
2022-09-06T07:02:04.510Z,55.00
2022-09-06T07:04:31.069Z,55.00
2022-09-06T07:12:30.396Z,54.80
2022-09-06T07:14:56.863Z,54.90
2022-09-06T07:17:23.329Z,54.60
2022-09-06T07:22:36.255Z,54.80
2022-09-06T07:25:02.736Z,55.10
2022-09-06T07:30:15.623Z,54.40
2022-09-06T07:32:42.060Z,54.80
2022-09-06T07:35:08.550Z,54.80
2022-09-06T07:37:35.129Z,55.00
2022-09-06T07:40:01.680Z,54.40
2022-09-06T07:42:29.971Z,54.60
2022-09-06T07:55:32.713Z,54.60
2022-09-06T07:57:59.182Z,54.70
2022-09-06T08:00:25.632Z,55.60
2022-09-06T08:02:52.099Z,54.40
2022-09-06T08:10:51.414Z,55.20
2022-09-06T08:15:44.890Z,55.00
2022-09-06T08:18:11.333Z,54.80
2022-09-06T08:20:37.784Z,54.70
2022-09-06T08:23:04.227Z,55.40
2022-09-06T08:25:30.709Z,54.70
2022-09-06T08:27:57.154Z,54.70
2022-09-06T08:30:23.597Z,54.30
2022-09-06T08:32:50.153Z,54.80
2022-09-06T08:35:16.620Z,55.00
2022-09-06T08:37:43.089Z,54.50
2022-09-06T08:42:36.643Z,55.00
2022-09-06T08:45:03.159Z,54.70
2022-09-06T08:49:56.630Z,54.80
2022-09-06T08:52:23.117Z,55.20
2022-09-06T08:54:49.562Z,54.70
2022-09-06T08:59:43.014Z,54.80
2022-09-06T09:02:09.672Z,55.40
2022-09-06T09:04:36.286Z,55.20
2022-09-06T09:07:02.731Z,55.20
2022-09-06T09:09:29.184Z,54.40
2022-09-06T09:11:55.639Z,54.60
2022-09-06T09:14:22.087Z,55.00
2022-09-06T09:16:48.537Z,55.30
2022-09-06T09:21:41.993Z,54.60
2022-09-06T09:24:08.445Z,54.40
2022-09-06T09:26:34.908Z,54.90
2022-09-06T09:31:28.517Z,54.70
2022-09-06T09:33:55.017Z,55.70
2022-09-06T09:38:48.444Z,55.30
2022-09-06T09:41:14.887Z,54.80
2022-09-06T09:43:41.323Z,54.80
2022-09-06T09:46:07.808Z,54.70
2022-09-06T09:48:34.327Z,54.30
2022-09-06T09:51:00.776Z,55.60
2022-09-06T09:53:27.248Z,54.60
2022-09-06T09:55:53.688Z,55.50
2022-09-06T09:58:20.145Z,54.80
2022-09-06T10:03:13.737Z,54.90
2022-09-06T10:05:40.209Z,55.90
2022-09-06T10:08:06.678Z,54.70
2022-09-06T10:10:33.164Z,55.60
2022-09-06T10:12:59.610Z,55.80
2022-09-06T10:15:26.085Z,54.60
2022-09-06T10:17:52.531Z,55.50
2022-09-06T10:20:19.000Z,55.40
2022-09-06T10:22:45.446Z,54.60
2022-09-06T10:25:11.923Z,55.40
2022-09-06T10:27:45.758Z,54.70
2022-09-06T10:30:22.086Z,54.60
2022-09-06T10:32:48.535Z,54.70
2022-09-06T10:35:14.989Z,54.80
2022-09-06T10:37:41.445Z,54.60
2022-09-06T10:42:34.974Z,55.40
2022-09-06T10:45:01.432Z,55.40
2022-09-06T10:47:27.899Z,54.50
2022-09-06T10:49:54.363Z,55.80
2022-09-06T10:52:20.814Z,54.80
2022-09-06T10:54:47.309Z,54.90
2022-09-06T11:00:00.240Z,55.10
2022-09-06T11:02:26.843Z,55.00
2022-09-06T11:07:39.982Z,54.90
2022-09-06T11:10:06.440Z,54.70
2022-09-06T11:12:32.906Z,54.90
2022-09-06T11:14:59.368Z,55.80
2022-09-06T11:17:25.843Z,55.20
2022-09-06T11:19:52.305Z,54.90
2022-09-06T11:22:18.754Z,56.00
2022-09-06T11:24:45.223Z,55.40
2022-09-06T11:27:11.651Z,55.30
2022-09-06T11:32:20.360Z,55.80
2022-09-06T11:34:46.814Z,55.80
2022-09-06T11:37:13.283Z,56.00
2022-09-06T11:42:26.186Z,55.80
2022-09-06T11:44:52.659Z,55.00
2022-09-06T11:47:19.108Z,55.20
2022-09-06T11:49:45.571Z,55.70
2022-09-06T11:52:12.009Z,55.80
2022-09-06T11:54:38.457Z,55.00
2022-09-06T11:57:04.907Z,54.80
2022-09-06T11:59:31.368Z,55.00
2022-09-06T12:01:57.819Z,55.00
2022-09-06T12:04:24.275Z,55.20
2022-09-06T12:06:50.717Z,54.70
2022-09-06T12:09:17.224Z,56.10
2022-09-06T12:11:43.671Z,55.00
2022-09-06T12:14:10.121Z,55.70
2022-09-06T12:16:36.569Z,55.00
2022-09-06T12:19:03.015Z,55.00
2022-09-06T12:21:29.453Z,55.00
2022-09-06T12:23:55.919Z,54.80
2022-09-06T12:26:22.363Z,55.40
2022-09-06T12:28:48.818Z,56.10
2022-09-06T12:31:18.328Z,55.10
2022-09-06T12:33:44.956Z,55.00
2022-09-06T12:36:11.434Z,54.50
2022-09-06T12:38:37.923Z,55.20
2022-09-06T12:41:04.889Z,55.00
2022-09-06T12:43:31.334Z,55.30
2022-09-06T12:48:24.886Z,55.70
2022-09-06T12:50:51.394Z,54.80
2022-09-06T12:53:20.487Z,54.80
2022-09-06T12:58:16.676Z,54.70
2022-09-06T13:00:43.136Z,54.70
2022-09-06T13:03:09.602Z,55.30
2022-09-06T13:05:36.050Z,55.60
2022-09-06T13:10:29.483Z,56.10
2022-09-06T13:12:55.945Z,55.60
2022-09-06T13:17:49.366Z,55.20
2022-09-06T13:20:15.807Z,54.60
2022-09-06T13:22:42.249Z,54.90
2022-09-06T13:25:08.716Z,55.50
2022-09-06T13:27:35.159Z,55.50
2022-09-06T13:30:01.654Z,55.90
2022-09-06T13:32:28.167Z,55.30
2022-09-06T13:34:54.612Z,55.70
2022-09-06T13:37:21.097Z,55.60
2022-09-06T13:39:47.557Z,55.80
2022-09-06T13:42:14.034Z,56.30
2022-09-06T13:44:40.483Z,55.60
2022-09-06T13:47:06.937Z,55.70
2022-09-06T13:49:33.414Z,56.30
2022-09-06T13:51:59.858Z,55.90
2022-09-06T13:54:26.311Z,56.50
2022-09-06T13:56:52.785Z,55.50
2022-09-06T13:59:19.246Z,56.10
2022-09-06T14:01:45.757Z,56.20
2022-09-06T14:04:12.282Z,55.40
2022-09-06T14:06:38.736Z,56.40
2022-09-06T14:09:07.711Z,56.20
2022-09-06T14:14:01.822Z,56.20
2022-09-06T14:16:28.272Z,55.40
2022-09-06T14:18:54.722Z,56.50
2022-09-06T14:21:21.179Z,54.90
2022-09-06T14:23:47.638Z,56.10
2022-09-06T14:26:14.094Z,56.40
2022-09-06T14:28:40.549Z,55.60
2022-09-06T14:31:07.055Z,55.30
2022-09-06T14:33:33.558Z,55.20
2022-09-06T14:36:00.014Z,56.10
2022-09-06T14:38:26.523Z,56.00
2022-09-06T14:40:53.058Z,56.30
2022-09-06T14:43:19.511Z,55.60
2022-09-06T14:48:13.047Z,55.50
2022-09-06T14:50:39.515Z,56.70
2022-09-06T14:55:45.378Z,56.10
2022-09-06T14:58:12.014Z,55.80
2022-09-06T15:03:05.508Z,56.40
2022-09-06T15:05:31.992Z,56.60
2022-09-06T15:07:58.427Z,56.30
2022-09-06T15:12:51.853Z,55.70
2022-09-06T15:15:18.323Z,55.60
2022-09-06T15:17:44.801Z,55.60
2022-09-06T15:20:11.251Z,56.00
2022-09-06T15:22:37.725Z,56.10
2022-09-06T15:25:04.196Z,56.70
2022-09-06T15:27:30.648Z,56.60
2022-09-06T15:29:57.091Z,56.40
2022-09-06T15:34:50.518Z,56.60
2022-09-06T15:37:16.945Z,56.20
2022-09-06T15:39:43.477Z,56.20
2022-09-06T15:42:09.990Z,56.60
2022-09-06T15:44:36.441Z,56.50
2022-09-06T15:47:02.900Z,56.80
2022-09-06T15:49:29.355Z,56.60
2022-09-06T15:51:55.836Z,56.20
2022-09-06T15:54:22.346Z,56.60
2022-09-06T15:59:15.792Z,57.00
2022-09-06T16:01:42.341Z,56.70
2022-09-06T16:04:08.871Z,56.10
2022-09-06T16:06:35.324Z,55.90
2022-09-06T16:09:01.763Z,56.00
2022-09-06T16:11:28.202Z,56.20
2022-09-06T16:13:54.659Z,55.40
2022-09-06T16:16:21.181Z,56.10
2022-09-06T16:21:14.648Z,56.90
2022-09-06T16:23:41.091Z,57.30
2022-09-06T16:26:07.536Z,56.20
2022-09-06T16:28:33.987Z,57.00
2022-09-06T16:31:00.497Z,56.20
2022-09-06T16:33:27.090Z,56.90
2022-09-06T16:35:53.564Z,57.00
2022-09-06T16:38:19.998Z,56.40
2022-09-06T16:43:13.449Z,56.80
2022-09-06T16:45:39.929Z,58.30
2022-09-06T16:48:06.416Z,58.30
2022-09-06T16:50:32.862Z,57.20
2022-09-06T16:52:59.313Z,56.20
2022-09-06T16:55:25.760Z,56.70
2022-09-06T16:57:52.229Z,55.60
2022-09-06T17:00:18.665Z,56.40
2022-09-06T17:05:13.749Z,56.50
2022-09-06T17:07:40.185Z,56.50
2022-09-06T17:10:06.640Z,55.70
2022-09-06T17:12:33.090Z,53.90
2022-09-06T17:14:59.554Z,53.70
2022-09-06T17:17:25.988Z,54.50
2022-09-06T17:19:52.446Z,54.60
2022-09-06T17:22:18.890Z,54.80
2022-09-06T17:24:45.362Z,56.50
2022-09-06T17:27:11.804Z,56.40
2022-09-06T17:29:38.241Z,56.60
2022-09-06T17:32:04.693Z,56.20
2022-09-06T17:34:31.124Z,56.40
2022-09-06T17:36:57.573Z,57.00
2022-09-06T17:39:24.015Z,56.40
2022-09-06T17:41:50.532Z,56.30
2022-09-06T17:44:16.962Z,56.60
2022-09-06T17:46:57.154Z,57.60
2022-09-06T17:49:29.834Z,56.40
2022-09-06T17:51:56.289Z,56.70
2022-09-06T17:54:22.757Z,56.50
2022-09-06T17:59:16.193Z,57.70
2022-09-06T18:01:42.854Z,56.90
2022-09-06T18:04:09.413Z,57.20
2022-09-06T18:09:02.869Z,56.70
2022-09-06T18:11:29.296Z,56.60
2022-09-06T18:16:22.772Z,56.70
2022-09-06T18:18:49.261Z,57.20
2022-09-06T18:21:15.731Z,57.50
2022-09-06T18:23:42.171Z,56.40
2022-09-06T18:28:35.636Z,57.00
2022-09-06T18:31:02.126Z,56.90
2022-09-06T18:33:28.577Z,56.40
2022-09-06T18:38:22.031Z,57.50
2022-09-06T18:40:48.520Z,56.70
2022-09-06T18:43:14.962Z,57.20
2022-09-06T18:45:41.487Z,56.70
2022-09-06T18:48:07.951Z,57.30
2022-09-06T18:50:34.391Z,57.40
2022-09-06T18:53:00.853Z,56.50
2022-09-06T18:55:27.322Z,57.40
2022-09-06T19:00:20.752Z,57.40
2022-09-06T19:02:47.188Z,56.60
2022-09-06T19:05:13.629Z,57.40
2022-09-06T19:07:40.062Z,57.20
2022-09-06T19:10:06.516Z,56.50
2022-09-06T19:12:34.898Z,57.20
2022-09-06T19:15:01.364Z,57.00
2022-09-06T19:17:27.800Z,57.40
2022-09-06T19:19:54.238Z,56.50
2022-09-06T19:22:20.686Z,56.70
2022-09-06T19:24:47.124Z,56.40
2022-09-06T19:27:13.561Z,57.40
2022-09-06T19:29:40.007Z,56.30
2022-09-06T19:32:06.517Z,56.30
2022-09-06T19:34:33.054Z,57.10
2022-09-06T19:36:59.488Z,56.00
2022-09-06T19:41:52.957Z,56.20
2022-09-06T19:46:46.730Z,56.90
2022-09-06T19:51:40.606Z,56.40
2022-09-06T19:54:07.062Z,57.20
2022-09-06T19:59:00.602Z,56.20
2022-09-06T20:01:27.119Z,55.70
2022-09-06T20:06:20.622Z,56.50
2022-09-06T20:08:47.118Z,56.60
2022-09-06T20:11:13.557Z,56.60
2022-09-06T20:13:40.073Z,56.50
2022-09-06T20:16:06.552Z,56.80
2022-09-06T20:18:33.033Z,55.80
2022-09-06T20:20:59.467Z,56.20
2022-09-06T20:23:25.978Z,55.60
2022-09-06T20:25:52.455Z,56.50
2022-09-06T20:28:18.924Z,56.20
2022-09-06T20:33:12.355Z,56.10
2022-09-06T20:35:38.885Z,56.10
2022-09-06T20:38:05.325Z,56.50
2022-09-06T20:42:58.789Z,56.60
2022-09-06T20:45:25.257Z,56.00
2022-09-06T20:47:51.716Z,55.80
2022-09-06T20:50:18.145Z,56.10
2022-09-06T20:52:44.584Z,56.00
2022-09-06T20:55:11.032Z,55.80
2022-09-06T20:57:37.471Z,56.10
2022-09-06T21:00:03.906Z,56.00
2022-09-06T21:02:30.437Z,55.90
2022-09-06T21:04:56.915Z,55.80
2022-09-06T21:07:23.380Z,55.50
2022-09-06T21:09:49.820Z,55.60
2022-09-06T21:12:16.260Z,56.10
2022-09-06T21:14:42.798Z,55.70
2022-09-06T21:17:09.243Z,56.60
2022-09-06T21:19:35.690Z,56.60
2022-09-06T21:22:02.138Z,56.60
2022-09-06T21:24:28.582Z,56.20
2022-09-06T21:26:55.027Z,56.50
2022-09-06T21:29:21.490Z,55.20
2022-09-06T21:31:48.071Z,56.50
2022-09-06T21:34:17.215Z,56.20
2022-09-06T21:36:43.901Z,55.80
2022-09-06T21:39:10.338Z,55.50
2022-09-06T21:41:36.785Z,55.30
2022-09-06T21:44:03.234Z,56.70
2022-09-06T21:46:32.915Z,55.80
2022-09-06T21:48:59.950Z,56.00
2022-09-06T21:51:26.410Z,56.20
2022-09-06T21:53:52.850Z,56.20
2022-09-06T21:56:19.296Z,56.30
2022-09-06T21:58:45.794Z,56.50
2022-09-06T22:01:12.315Z,56.00
2022-09-06T22:03:38.883Z,56.20
2022-09-06T22:06:05.351Z,56.10
2022-09-06T22:08:31.800Z,56.40
2022-09-06T22:10:58.262Z,55.70
2022-09-06T22:13:24.725Z,55.70
2022-09-06T22:15:51.220Z,56.00
2022-09-06T22:18:17.708Z,56.50
2022-09-06T22:20:44.166Z,55.80
2022-09-06T22:23:10.598Z,55.60
2022-09-06T22:25:37.062Z,55.80
2022-09-06T22:28:03.499Z,56.10
2022-09-06T22:30:30.019Z,55.80
2022-09-06T22:32:56.464Z,55.80
2022-09-06T22:35:22.896Z,56.60
2022-09-06T22:37:49.350Z,56.80
2022-09-06T22:40:15.793Z,56.50
2022-09-06T22:42:42.292Z,56.50
2022-09-06T22:45:08.739Z,55.50
2022-09-06T22:47:35.229Z,55.90
2022-09-06T22:50:01.678Z,56.50
2022-09-06T22:52:28.121Z,55.90
2022-09-06T22:54:54.586Z,55.90
2022-09-06T22:57:21.031Z,56.70
2022-09-06T23:02:14.481Z,56.10
2022-09-06T23:04:41.005Z,56.30
2022-09-06T23:07:07.472Z,56.10
2022-09-06T23:09:33.910Z,55.80
2022-09-06T23:12:00.371Z,56.40
2022-09-06T23:14:26.821Z,56.00
2022-09-06T23:16:53.272Z,55.80
2022-09-06T23:19:19.737Z,55.70
2022-09-06T23:24:13.209Z,56.80
2022-09-06T23:26:39.700Z,57.00
2022-09-06T23:31:33.246Z,55.70
2022-09-06T23:33:59.718Z,55.90
2022-09-06T23:36:26.155Z,55.70
2022-09-06T23:41:19.579Z,56.70
2022-09-06T23:43:46.037Z,55.60
2022-09-06T23:46:12.521Z,56.70
2022-09-06T23:48:38.997Z,56.90
2022-09-06T23:53:32.432Z,55.60
2022-09-06T23:55:58.875Z,56.30
2022-09-06T23:58:25.392Z,56.10
